Madison, Tennessee
Current Conditions -  °F | °C
As of 7:17 AM on Thursday 18 Dec 2014 (Local Time) from KBNA Reporting Station
Haze Haze  
Wind Chill: 34°   Ceiling: 900
Heat Index: 34°   Visibility: 6mi
Dew Point: 30°   Wind: 0mph
Humidity: 87%   Direction: NA
Pressure: 30.25"   Gusts: NA
Location:  36.26°N, 86.71°W
Report Text: KBNA 181317Z 00000KT 6SM BR BKN009 OVC055 01/M01 A3025 RMK AO2
Loading
Personal Weather Stations






























Interactive Weather Map New forecast layout! Learn more

10-Day Weather Forecast

Advertisements
Track Severe Weather on mobile